Time;durP1;ratioP1;P1;durP2;ratioP2;P2;SDS_P1;SDS_P2;PMS_P1;PMS_P2;Temp;Humidity;BMP_temperature;BMP_pressure;BME280_temperature;BME280_humidity;BME280_pressure;Samples;Min_cycle;Max_cycle;Signal;HPM_P1;HPM_P2
2022/04/26 03:37:36;;;;;;;;;;;10.50;99.90;;;;;;5082803;28;20031;-88
2022/04/26 03:40:01;;;;;;;;;;;10.50;99.90;;;;;;5082528;28;20039;-88
2022/04/26 03:42:27;;;;;;;;;;;10.40;99.90;;;;;;5064753;28;19943;-88
2022/04/26 03:44:52;;;;;;;;;;;10.40;99.90;;;;;;5081841;28;19904;-88
2022/04/26 03:47:18;;;;;;;;;;;10.40;99.90;;;;;;5082560;28;19989;-88
2022/04/26 03:49:43;;;;;;;;;;;10.30;99.90;;;;;;5081854;28;20101;-88
2022/04/26 03:52:09;;;;;;;;;;;10.30;99.90;;;;;;5082253;28;20256;-88
2022/04/26 03:54:35;;;;;;;;;;;10.30;99.90;;;;;;5081999;28;19905;-88
2022/04/26 03:57:00;;;;;;;;;;;10.30;99.90;;;;;;5063606;28;20196;-88
2022/04/26 03:59:26;;;;;;;;;;;10.30;99.90;;;;;;5081957;28;20033;-88
2022/04/26 04:01:51;;;;;;;;;;;10.30;99.90;;;;;;5064712;28;19930;-89
2022/04/26 04:04:17;;;;;;;;;;;10.30;99.90;;;;;;5081713;28;19905;-88
2022/04/26 04:06:43;;;;;;;;;;;10.20;99.90;;;;;;5063776;28;20092;-89
2022/04/26 04:09:08;;;;;;;;;;;10.30;99.90;;;;;;5081724;28;19935;-88
2022/04/26 04:11:34;;;;;;;;;;;10.20;99.90;;;;;;5082287;28;19904;-87
2022/04/26 04:13:59;;;;;;;;;;;10.20;99.90;;;;;;5082067;28;20141;-89
2022/04/26 04:16:25;;;;;;;;;;;10.20;99.90;;;;;;5064778;28;19911;-87
2022/04/26 04:21:34;;;;;;;;;;;10.20;99.90;;;;;;5081534;28;20162;-88
2022/04/26 04:24:00;;;;;;;;;;;10.20;99.90;;;;;;5063255;28;19913;-88
2022/04/26 04:26:26;;;;;;;;;;;10.10;99.90;;;;;;5081614;28;20195;-87
2022/04/26 04:28:51;;;;;;;;;;;10.10;99.90;;;;;;5063852;28;20073;-88
2022/04/26 04:31:17;;;;;;;;;;;10.10;99.90;;;;;;5081725;28;20359;-87
2022/04/26 04:33:45;;;;;;;;;;;10.10;99.90;;;;;;5081523;28;19905;-88
2022/04/26 04:36:11;;;;;;;;;;;10.10;99.90;;;;;;5062856;28;19984;-88
2022/04/26 04:38:37;;;;;;;;;;;10.10;99.90;;;;;;5081246;28;19917;-89
2022/04/26 04:41:02;;;;;;;;;;;10.10;99.90;;;;;;5081227;28;19904;-88
2022/04/26 04:43:28;;;;;;;;;;;10.10;99.90;;;;;;5081736;28;19908;-88
2022/04/26 04:45:53;;;;;;;;;;;10.00;99.90;;;;;;5063652;28;19926;-89
2022/04/26 04:48:19;;;;;;;;;;;10.00;99.90;;;;;;5080774;28;20127;-88
2022/04/26 04:50:44;;;;;;;;;;;10.00;99.90;;;;;;5062993;28;19911;-89
2022/04/26 04:53:10;;;;;;;;;;;10.00;99.90;;;;;;5081534;28;19904;-88
2022/04/26 04:55:38;;;;;;;;;;;9.90;99.90;;;;;;5081248;28;19943;-88
2022/04/26 04:58:04;;;;;;;;;;;9.90;99.90;;;;;;5081287;28;19912;-88
2022/04/26 05:00:30;;;;;;;;;;;9.90;99.90;;;;;;5081299;28;19972;-88
2022/04/26 05:02:55;;;;;;;;;;;9.90;99.90;;;;;;5063204;28;19904;-89
2022/04/26 05:05:21;;;;;;;;;;;9.90;99.90;;;;;;5081219;28;19911;-89
2022/04/26 05:07:47;;;;;;;;;;;9.90;99.90;;;;;;5080211;28;19997;-87
2022/04/26 05:10:13;;;;;;;;;;;9.80;99.90;;;;;;5080380;28;19917;-88
2022/04/26 05:12:38;;;;;;;;;;;9.90;99.90;;;;;;5063804;28;19909;-89
2022/04/26 05:15:04;;;;;;;;;;;9.90;99.90;;;;;;5081569;28;19905;-88
2022/04/26 05:17:30;;;;;;;;;;;9.90;99.90;;;;;;5074666;28;19928;-87
2022/04/26 05:19:55;;;;;;;;;;;9.90;99.90;;;;;;5078893;28;19911;-88
2022/04/26 05:22:21;;;;;;;;;;;9.90;99.90;;;;;;5056171;28;19912;-87
2022/04/26 05:24:59;;;;;;;;;;;9.90;99.90;;;;;;5073014;28;19927;-87
2022/04/26 05:27:31;;;;;;;;;;;9.90;99.90;;;;;;5072728;28;19965;-88
2022/04/26 05:29:57;;;;;;;;;;;9.90;99.90;;;;;;5054958;28;20357;-87
2022/04/26 05:32:24;;;;;;;;;;;9.90;99.90;;;;;;5054834;28;19991;-87
2022/04/26 05:34:56;;;;;;;;;;;9.90;99.90;;;;;;5072402;28;20581;-87
2022/04/26 05:37:22;;;;;;;;;;;9.90;99.90;;;;;;5072651;28;19917;-86
2022/04/26 05:39:48;;;;;;;;;;;10.00;99.90;;;;;;5054913;28;19908;-86
2022/04/26 05:42:13;;;;;;;;;;;10.00;99.90;;;;;;5054593;28;19908;-86
2022/04/26 05:44:39;;;;;;;;;;;10.00;99.90;;;;;;5072408;28;19932;-86
2022/04/26 05:47:08;;;;;;;;;;;10.00;99.90;;;;;;5073074;28;19912;-87
2022/04/26 05:49:34;;;;;;;;;;;10.00;99.90;;;;;;5054610;28;19920;-87
2022/04/26 05:52:00;;;;;;;;;;;10.10;99.90;;;;;;5073170;28;20296;-86
2022/04/26 05:54:25;;;;;;;;;;;10.10;99.90;;;;;;5073138;28;19995;-86
2022/04/26 05:56:53;;;;;;;;;;;10.20;99.90;;;;;;5055117;28;19959;-87
2022/04/26 05:59:19;;;;;;;;;;;10.20;99.90;;;;;;5073216;28;19958;-86
2022/04/26 06:01:45;;;;;;;;;;;10.30;99.90;;;;;;5072860;28;19913;-86
2022/04/26 06:04:10;;;;;;;;;;;10.30;99.90;;;;;;5072422;28;19916;-87
2022/04/26 06:06:36;;;;;;;;;;;10.30;99.90;;;;;;5073199;28;19909;-87
2022/04/26 06:09:02;;;;;;;;;;;10.40;99.90;;;;;;5072948;28;19908;-88
2022/04/26 06:11:28;;;;;;;;;;;10.30;99.90;;;;;;5055474;28;19909;-87
2022/04/26 06:13:53;;;;;;;;;;;10.30;99.90;;;;;;5055412;28;19995;-87
2022/04/26 06:16:19;;;;;;;;;;;10.30;99.90;;;;;;5055280;28;19908;-88
2022/04/26 06:18:45;;;;;;;;;;;10.20;99.90;;;;;;5054264;28;20443;-86
2022/04/26 06:21:10;;;;;;;;;;;10.30;99.90;;;;;;5055024;28;20384;-88
2022/04/26 06:23:36;;;;;;;;;;;10.30;99.90;;;;;;5073463;28;19940;-87
2022/04/26 06:26:01;;;;;;;;;;;10.30;99.90;;;;;;5054269;28;19920;-87
2022/04/26 06:28:27;;;;;;;;;;;10.30;99.90;;;;;;5072563;28;20397;-87
2022/04/26 06:30:55;;;;;;;;;;;10.40;99.90;;;;;;5071451;28;19908;-86
2022/04/26 06:33:20;;;;;;;;;;;10.60;99.90;;;;;;5071938;28;20177;-86
2022/04/26 06:35:46;;;;;;;;;;;10.60;99.90;;;;;;5054806;28;20134;-87
2022/04/26 06:38:11;;;;;;;;;;;10.70;99.90;;;;;;5072035;28;20295;-87
2022/04/26 06:40:40;;;;;;;;;;;10.70;99.90;;;;;;5054243;28;19915;-88
2022/04/26 06:43:05;;;;;;;;;;;10.70;99.90;;;;;;5071982;28;19956;-87
2022/04/26 06:45:31;;;;;;;;;;;10.80;99.90;;;;;;5071916;28;19947;-87
2022/04/26 06:47:58;;;;;;;;;;;10.80;99.90;;;;;;5071690;28;20064;-86
2022/04/26 06:50:24;;;;;;;;;;;10.90;99.90;;;;;;5072054;28;19912;-87
2022/04/26 06:52:49;;;;;;;;;;;10.90;99.90;;;;;;5054234;28;19965;-86
2022/04/26 06:55:15;;;;;;;;;;;11.00;99.90;;;;;;5053766;28;19995;-87
2022/04/26 06:57:41;;;;;;;;;;;11.10;99.90;;;;;;5071819;28;19939;-88
2022/04/26 07:00:07;;;;;;;;;;;11.10;99.90;;;;;;5071753;28;19993;-87
2022/04/26 07:02:33;;;;;;;;;;;11.10;99.90;;;;;;5071516;28;19913;-86
2022/04/26 07:04:58;;;;;;;;;;;11.10;99.90;;;;;;5053505;28;19908;-87
2022/04/26 07:07:24;;;;;;;;;;;11.20;99.90;;;;;;5071763;28;19915;-87
2022/04/26 07:09:49;;;;;;;;;;;11.40;99.90;;;;;;5053648;28;20430;-86
2022/04/26 07:12:15;;;;;;;;;;;11.50;99.90;;;;;;5053610;28;20388;-86
2022/04/26 07:14:40;;;;;;;;;;;11.60;99.90;;;;;;5071674;28;19962;-87
2022/04/26 07:17:06;;;;;;;;;;;11.80;99.90;;;;;;5053376;28;19951;-86
2022/04/26 07:19:35;;;;;;;;;;;11.80;99.90;;;;;;5053264;28;19966;-88
2022/04/26 07:22:02;;;;;;;;;;;11.90;99.90;;;;;;5071269;28;19991;-86
2022/04/26 07:24:27;;;;;;;;;;;11.90;99.90;;;;;;5071164;28;20419;-86
2022/04/26 07:26:54;;;;;;;;;;;12.00;99.90;;;;;;5071406;28;19909;-87
2022/04/26 07:29:19;;;;;;;;;;;12.10;99.90;;;;;;5071220;28;19908;-86
2022/04/26 07:31:46;;;;;;;;;;;12.10;99.90;;;;;;5071217;28;20026;-86
2022/04/26 07:34:20;;;;;;;;;;;12.20;99.90;;;;;;5070925;28;19923;-86
2022/04/26 07:36:49;;;;;;;;;;;12.30;99.90;;;;;;5071040;28;19909;-88
2022/04/26 07:39:17;;;;;;;;;;;12.40;99.90;;;;;;5070969;28;19912;-86
2022/04/26 07:41:43;;;;;;;;;;;12.50;99.90;;;;;;5070865;28;19908;-86
2022/04/26 07:44:09;;;;;;;;;;;12.60;99.90;;;;;;5052698;28;19908;-88
2022/04/26 07:46:34;;;;;;;;;;;12.70;99.90;;;;;;5070968;28;19969;-86
2022/04/26 07:49:00;;;;;;;;;;;12.70;99.90;;;;;;5070362;28;20007;-86
2022/04/26 07:51:25;;;;;;;;;;;12.80;99.90;;;;;;5052879;28;19967;-87
2022/04/26 07:53:51;;;;;;;;;;;12.90;99.90;;;;;;5070737;28;19913;-87
2022/04/26 07:56:16;;;;;;;;;;;12.80;99.90;;;;;;5070682;28;19909;-87
2022/04/26 07:58:42;;;;;;;;;;;12.90;99.90;;;;;;5070686;28;20018;-87
2022/04/26 08:01:07;;;;;;;;;;;13.00;99.90;;;;;;5070463;28;19908;-86
2022/04/26 08:03:35;;;;;;;;;;;13.10;99.90;;;;;;5052298;28;19909;-86
2022/04/26 08:06:00;;;;;;;;;;;13.20;99.90;;;;;;5070959;28;20230;-86
2022/04/26 08:08:26;;;;;;;;;;;13.30;99.90;;;;;;5070500;28;20456;-87
2022/04/26 08:10:52;;;;;;;;;;;13.40;99.90;;;;;;5052400;28;19915;-87
2022/04/26 08:13:17;;;;;;;;;;;13.50;99.90;;;;;;5070496;28;19912;-87
2022/04/26 08:15:43;;;;;;;;;;;13.70;99.90;;;;;;5070538;28;19938;-87
2022/04/26 08:18:10;;;;;;;;;;;13.70;99.90;;;;;;5070045;28;19916;-88
2022/04/26 08:20:35;;;;;;;;;;;13.90;99.90;;;;;;5052322;28;19919;-87
2022/04/26 08:23:02;;;;;;;;;;;14.00;99.90;;;;;;5070366;28;19912;-87
2022/04/26 08:28:11;;;;;;;;;;;14.20;99.90;;;;;;5070571;28;20324;-87
2022/04/26 08:30:37;;;;;;;;;;;14.30;99.90;;;;;;5052075;28;19952;-87
2022/04/26 08:33:02;;;;;;;;;;;14.40;99.90;;;;;;5051982;28;19916;-86
2022/04/26 08:35:28;;;;;;;;;;;14.50;99.90;;;;;;5070432;28;20290;-86
2022/04/26 08:37:54;;;;;;;;;;;14.60;99.90;;;;;;5070145;28;19939;-87
2022/04/26 08:40:19;;;;;;;;;;;14.60;99.90;;;;;;5070310;28;20284;-87
2022/04/26 08:42:46;;;;;;;;;;;14.80;99.90;;;;;;5070293;28;19978;-87
2022/04/26 08:45:16;;;;;;;;;;;14.90;99.90;;;;;;5051990;28;19923;-87
2022/04/26 08:53:14;;;;;;;;;;;15.20;99.90;;;;;;5072199;28;19954;-87
2022/04/26 08:55:40;;;;;;;;;;;15.20;99.90;;;;;;5056154;28;19909;-87
2022/04/26 08:58:08;;;;;;;;;;;15.30;99.90;;;;;;5074115;28;20254;-87
2022/04/26 09:00:34;;;;;;;;;;;15.30;99.90;;;;;;5056003;28;19909;-86
2022/04/26 09:03:01;;;;;;;;;;;15.40;99.90;;;;;;5073685;28;19995;-87
2022/04/26 09:05:27;;;;;;;;;;;15.50;99.90;;;;;;5073796;28;19912;-88
2022/04/26 09:07:52;;;;;;;;;;;15.60;99.90;;;;;;5073405;28;19914;-88
2022/04/26 09:10:19;;;;;;;;;;;15.60;99.90;;;;;;5074079;28;20285;-87
2022/04/26 09:13:01;;;;;;;;;;;15.70;99.90;;;;;;5074108;28;19908;-87
2022/04/26 09:15:33;;;;;;;;;;;15.80;99.90;;;;;;5055787;28;20386;-87
2022/04/26 09:18:20;;;;;;;;;;;15.80;99.90;;;;;;5073296;28;19923;-87
2022/04/26 09:20:46;;;;;;;;;;;16.00;99.90;;;;;;5073915;28;19913;-88
2022/04/26 09:23:19;;;;;;;;;;;16.10;99.90;;;;;;5073697;28;19909;-87
2022/04/26 09:25:46;;;;;;;;;;;16.20;99.90;;;;;;5055333;28;19920;-87
2022/04/26 09:28:26;;;;;;;;;;;16.20;99.90;;;;;;5055598;28;19919;-87
2022/04/26 09:30:52;;;;;;;;;;;16.30;99.90;;;;;;5073608;28;19970;-88
2022/04/26 09:33:31;;;;;;;;;;;16.40;99.90;;;;;;5073079;28;19908;-87
2022/04/26 09:36:00;;;;;;;;;;;16.40;99.90;;;;;;5073375;28;19909;-88
2022/04/26 09:38:26;;;;;;;;;;;16.50;99.90;;;;;;5073229;28;20351;-87
2022/04/26 09:40:58;;;;;;;;;;;16.60;99.90;;;;;;5073401;28;20003;-87
2022/04/26 09:43:24;;;;;;;;;;;16.80;99.90;;;;;;5073482;28;20004;-87
2022/04/26 09:45:56;;;;;;;;;;;16.80;99.90;;;;;;5055075;28;19931;-87
2022/04/26 09:48:28;;;;;;;;;;;17.00;99.90;;;;;;5066300;28;19939;-87
2022/04/26 09:50:53;;;;;;;;;;;17.00;99.90;;;;;;5055003;28;19939;-87
2022/04/26 09:53:19;;;;;;;;;;;17.10;99.90;;;;;;5055204;28;19948;-88
2022/04/26 09:55:46;;;;;;;;;;;17.30;99.90;;;;;;5055031;28;19915;-87
2022/04/26 09:58:13;;;;;;;;;;;17.40;99.90;;;;;;5072220;28;19928;-87
2022/04/26 10:00:40;;;;;;;;;;;17.40;99.90;;;;;;5055509;28;19916;-88
2022/04/26 10:03:09;;;;;;;;;;;17.50;99.90;;;;;;5072383;28;20392;-88
2022/04/26 10:05:37;;;;;;;;;;;17.60;99.90;;;;;;5072605;28;19978;-87
2022/04/26 10:08:04;;;;;;;;;;;17.70;99.90;;;;;;5072685;28;19959;-87
2022/04/26 10:10:30;;;;;;;;;;;17.80;99.90;;;;;;5072844;28;19916;-88
2022/04/26 10:15:40;;;;;;;;;;;18.00;99.90;;;;;;5072717;28;19915;-87
2022/04/26 10:18:26;;;;;;;;;;;18.10;99.90;;;;;;5072420;28;19917;-87
2022/04/26 10:20:52;;;;;;;;;;;18.20;99.90;;;;;;5054611;28;19920;-87
2022/04/26 10:23:17;;;;;;;;;;;18.30;99.90;;;;;;5072508;28;19909;-87
2022/04/26 10:26:02;;;;;;;;;;;18.30;99.90;;;;;;5072482;28;19927;-87
2022/04/26 10:28:29;;;;;;;;;;;18.30;99.90;;;;;;5072018;28;19961;-87
2022/04/26 10:30:57;;;;;;;;;;;18.50;99.90;;;;;;5072643;28;19945;-88
2022/04/26 10:33:42;;;;;;;;;;;18.40;99.90;;;;;;5054131;28;19935;-87
2022/04/26 10:36:26;;;;;;;;;;;18.60;99.90;;;;;;5072913;28;19936;-89
2022/04/26 10:39:07;;;;;;;;;;;18.70;99.90;;;;;;5072555;28;19924;-90
2022/04/26 10:41:40;;;;;;;;;;;18.80;99.90;;;;;;5072336;28;19909;-89
2022/04/26 10:44:15;;;;;;;;;;;18.80;99.90;;;;;;5072359;28;19909;-86
2022/04/26 10:46:41;;;;;;;;;;;18.90;99.90;;;;;;5073192;28;20004;-89
2022/04/26 10:49:35;;;;;;;;;;;18.90;99.90;;;;;;5072526;28;19999;-89
2022/04/26 10:52:22;;;;;;;;;;;18.90;99.90;;;;;;5050896;28;19963;-89
2022/04/26 10:57:17;;;;;;;;;;;19.20;99.90;;;;;;5072889;28;20428;-96
2022/04/26 10:59:43;;;;;;;;;;;19.30;99.90;;;;;;5072502;28;20360;-89
2022/04/26 11:02:10;;;;;;;;;;;19.40;99.90;;;;;;5072387;28;19971;-92
2022/04/26 11:04:36;;;;;;;;;;;19.50;99.90;;;;;;5071383;28;19908;-89
2022/04/26 11:07:10;;;;;;;;;;;19.60;99.90;;;;;;5071102;28;20007;-90
2022/04/26 11:09:36;;;;;;;;;;;19.80;99.90;;;;;;5071253;28;19919;-89
2022/04/26 11:12:02;;;;;;;;;;;19.80;99.90;;;;;;5070644;28;20023;-88
2022/04/26 11:14:28;;;;;;;;;;;19.80;99.90;;;;;;5053571;28;19908;-88
2022/04/26 11:16:55;;;;;;;;;;;19.90;99.90;;;;;;5070801;28;19909;-91
2022/04/26 11:19:29;;;;;;;;;;;19.90;99.90;;;;;;5071087;28;20381;-88
2022/04/26 11:21:55;;;;;;;;;;;20.00;99.60;;;;;;5071142;28;19908;-88
2022/04/26 11:29:53;;;;;;;;;;;20.30;99.90;;;;;;5071227;28;19915;-89
2022/04/26 11:32:31;;;;;;;;;;;20.40;99.70;;;;;;5070915;28;19908;-89
2022/04/26 11:34:57;;;;;;;;;;;20.40;98.90;;;;;;5071046;28;19914;-88
2022/04/26 11:37:23;;;;;;;;;;;20.40;99.30;;;;;;5071074;28;19912;-89
2022/04/26 11:39:49;;;;;;;;;;;20.50;99.50;;;;;;5071149;28;19908;-88
2022/04/26 11:42:15;;;;;;;;;;;20.70;99.60;;;;;;5070825;28;20429;-91
2022/04/26 11:45:00;;;;;;;;;;;20.70;98.90;;;;;;5071036;28;19959;-88
2022/04/26 11:47:48;;;;;;;;;;;20.70;99.10;;;;;;5071065;28;19964;-88
2022/04/26 11:50:14;;;;;;;;;;;20.80;98.60;;;;;;5072398;28;20003;-89
2022/04/26 11:52:43;;;;;;;;;;;20.80;98.10;;;;;;5072479;28;19908;-89
2022/04/26 11:55:17;;;;;;;;;;;20.70;98.60;;;;;;5052850;28;19908;-88
2022/04/26 11:57:43;;;;;;;;;;;20.90;98.10;;;;;;5070746;28;19916;-88
2022/04/26 12:00:08;;;;;;;;;;;21.00;98.50;;;;;;5070720;28;20296;-88
2022/04/26 12:02:34;;;;;;;;;;;21.10;97.60;;;;;;5070307;28;20269;-90
2022/04/26 12:05:00;;;;;;;;;;;21.10;97.40;;;;;;5070584;28;19999;-88
2022/04/26 12:07:26;;;;;;;;;;;21.20;97.90;;;;;;5070432;28;19909;-88
2022/04/26 12:09:52;;;;;;;;;;;21.30;97.40;;;;;;5070495;28;19921;-88
2022/04/26 12:12:18;;;;;;;;;;;21.60;97.30;;;;;;5052406;28;20377;-88
2022/04/26 12:14:47;;;;;;;;;;;21.70;97.10;;;;;;5070608;28;19916;-88
2022/04/26 12:17:22;;;;;;;;;;;21.70;97.20;;;;;;5052222;28;19908;-88
2022/04/26 12:19:51;;;;;;;;;;;21.70;96.90;;;;;;5070639;28;20451;-88
2022/04/26 12:22:20;;;;;;;;;;;21.80;96.20;;;;;;5070564;28;20477;-89
2022/04/26 12:24:46;;;;;;;;;;;22.00;96.00;;;;;;5070157;28;19921;-88
2022/04/26 12:27:12;;;;;;;;;;;22.10;96.40;;;;;;5070123;28;19920;-89
2022/04/26 12:29:38;;;;;;;;;;;22.20;95.40;;;;;;5070171;28;19912;-88
2022/04/26 12:32:04;;;;;;;;;;;22.30;95.70;;;;;;5070201;28;19909;-89
2022/04/26 12:34:30;;;;;;;;;;;22.40;95.30;;;;;;5070325;28;19908;-88
2022/04/26 12:36:57;;;;;;;;;;;22.50;95.50;;;;;;5070357;28;19909;-88
2022/04/26 12:39:23;;;;;;;;;;;22.60;94.70;;;;;;5070279;28;19948;-88
2022/04/26 12:41:51;;;;;;;;;;;22.80;95.40;;;;;;5070177;28;19962;-88
2022/04/26 12:44:17;;;;;;;;;;;22.90;95.10;;;;;;5070034;28;19909;-89
2022/04/26 12:46:46;;;;;;;;;;;22.80;94.50;;;;;;5070509;28;19908;-89
2022/04/26 12:51:57;;;;;;;;;;;23.00;94.00;;;;;;5069932;28;19915;-88
2022/04/26 12:54:22;;;;;;;;;;;23.40;93.60;;;;;;5070079;28;19912;-89
2022/04/26 12:57:03;;;;;;;;;;;23.60;92.80;;;;;;5052025;28;19908;-89
2022/04/26 12:59:36;;;;;;;;;;;23.80;93.50;;;;;;5069998;28;19922;-89
2022/04/26 13:02:02;;;;;;;;;;;23.90;92.60;;;;;;5070001;28;19923;-89
2022/04/26 13:04:28;;;;;;;;;;;23.90;92.20;;;;;;5069382;28;20070;-89
2022/04/26 13:06:53;;;;;;;;;;;23.80;91.70;;;;;;5051767;28;19942;-89
2022/04/26 13:09:19;;;;;;;;;;;23.90;92.00;;;;;;5070223;28;19962;-90
2022/04/26 13:11:45;;;;;;;;;;;23.90;91.50;;;;;;5069772;28;19913;-89
2022/04/26 13:14:11;;;;;;;;;;;24.10;91.40;;;;;;5069755;28;19919;-91
2022/04/26 13:16:36;;;;;;;;;;;24.30;91.60;;;;;;5051806;28;19909;-89
2022/04/26 13:19:02;;;;;;;;;;;24.40;92.30;;;;;;5069465;28;20227;-89
2022/04/26 13:21:28;;;;;;;;;;;24.60;91.70;;;;;;5071662;28;19915;-89
2022/04/26 13:23:57;;;;;;;;;;;24.60;91.00;;;;;;5070115;28;19916;-89
2022/04/26 13:26:23;;;;;;;;;;;24.80;90.40;;;;;;5068940;28;20343;-89
2022/04/26 13:28:48;;;;;;;;;;;24.80;90.40;;;;;;5068645;28;19909;-89
2022/04/26 13:31:14;;;;;;;;;;;24.90;90.60;;;;;;5050513;28;20392;-89
2022/04/26 13:33:42;;;;;;;;;;;24.90;90.40;;;;;;5068739;28;19969;-89
2022/04/26 13:36:08;;;;;;;;;;;25.10;90.30;;;;;;5068686;28;19958;-89
2022/04/26 13:38:33;;;;;;;;;;;25.30;90.70;;;;;;5051189;28;19959;-89
2022/04/26 13:41:00;;;;;;;;;;;25.50;89.40;;;;;;5055768;28;19908;-90
2022/04/26 13:43:25;;;;;;;;;;;25.90;89.60;;;;;;5069092;28;20408;-89
2022/04/26 13:45:51;;;;;;;;;;;25.90;88.10;;;;;;5072103;28;20007;-89
2022/04/26 13:48:17;;;;;;;;;;;25.90;89.60;;;;;;5071979;28;19986;-90
2022/04/26 13:50:43;;;;;;;;;;;26.10;87.30;;;;;;5071999;28;19955;-90
2022/04/26 13:53:08;;;;;;;;;;;26.40;87.20;;;;;;5053859;28;19951;-93
2022/04/26 13:55:34;;;;;;;;;;;26.80;86.40;;;;;;5053811;28;19908;-89
2022/04/26 13:58:03;;;;;;;;;;;27.60;85.60;;;;;;5071994;28;19916;-90
2022/04/26 14:00:30;;;;;;;;;;;28.10;85.10;;;;;;5072037;28;19916;-90
2022/04/26 14:02:56;;;;;;;;;;;28.70;83.70;;;;;;5053468;28;19915;-89
2022/04/26 14:05:23;;;;;;;;;;;29.80;82.30;;;;;;5071737;28;19913;-91
2022/04/26 14:07:48;;;;;;;;;;;30.30;80.00;;;;;;5071942;28;20281;-89
2022/04/26 14:10:15;;;;;;;;;;;31.50;79.10;;;;;;5071591;28;19909;-89
2022/04/26 14:12:41;;;;;;;;;;;33.20;76.50;;;;;;5053427;28;19920;-89
2022/04/26 14:23:33;;;;;;;;;;;37.30;64.50;;;;;;5072192;28;19966;-91
2022/04/26 14:25:59;;;;;;;;;;;38.60;62.60;;;;;;5000304;28;1532084;-94
2022/04/26 14:28:24;;;;;;;;;;;39.20;60.30;;;;;;5072372;28;19995;-90
2022/04/26 14:30:50;;;;;;;;;;;39.20;58.60;;;;;;5072392;28;19936;-89
2022/04/26 14:33:17;;;;;;;;;;;39.50;57.80;;;;;;5053921;28;19961;-89
2022/04/26 14:35:44;;;;;;;;;;;39.30;57.30;;;;;;5072369;28;19943;-94
2022/04/26 14:38:10;;;;;;;;;;;39.70;56.60;;;;;;5072719;28;20492;-94
2022/04/26 14:40:36;;;;;;;;;;;40.50;56.50;;;;;;5072457;28;20008;-91
2022/04/26 14:43:01;;;;;;;;;;;41.50;55.50;;;;;;5072247;28;19909;-89
2022/04/26 14:45:32;;;;;;;;;;;41.60;54.70;;;;;;5072294;28;19977;-89
2022/04/26 14:47:58;;;;;;;;;;;41.60;54.40;;;;;;5071824;28;19909;-89
2022/04/26 14:50:23;;;;;;;;;;;41.30;53.40;;;;;;5070739;28;19915;-89
2022/04/26 14:52:50;;;;;;;;;;;40.60;53.00;;;;;;5053875;28;19912;-92
2022/04/26 14:55:15;;;;;;;;;;;39.40;52.30;;;;;;5055161;28;20705;-89
2022/04/26 14:57:41;;;;;;;;;;;39.00;52.70;;;;;;5055235;28;19912;-90
2022/04/26 15:00:07;;;;;;;;;;;39.00;52.30;;;;;;5072200;28;20015;-89
2022/04/26 15:02:38;;;;;;;;;;;39.20;52.50;;;;;;5071646;28;20611;-90
2022/04/26 15:05:13;;;;;;;;;;;40.10;52.50;;;;;;5071767;28;19909;-89
2022/04/26 15:10:24;;;;;;;;;;;41.70;51.50;;;;;;5071991;28;20009;-89
2022/04/26 15:18:20;;;;;;;;;;;42.20;50.00;;;;;;5071497;28;19927;-93
2022/04/26 15:20:48;;;;;;;;;;;42.10;49.70;;;;;;5071389;28;19919;-90
2022/04/26 15:23:15;;;;;;;;;;;42.20;49.60;;;;;;5071274;28;19920;-89
2022/04/26 15:25:41;;;;;;;;;;;42.50;48.90;;;;;;5071291;28;20428;-89
2022/04/26 15:28:08;;;;;;;;;;;42.80;48.40;;;;;;5053225;28;20008;-90
2022/04/26 15:30:40;;;;;;;;;;;43.00;48.00;;;;;;5071127;28;20353;-90
2022/04/26 15:33:06;;;;;;;;;;;43.00;49.40;;;;;;5056783;28;19912;-91
2022/04/26 15:35:31;;;;;;;;;;;43.30;48.50;;;;;;5073816;28;20350;-89
2022/04/26 15:37:57;;;;;;;;;;;43.00;47.70;;;;;;5053067;28;19917;-88
2022/04/26 15:40:22;;;;;;;;;;;42.50;48.50;;;;;;5070988;28;19908;-92
2022/04/26 15:42:48;;;;;;;;;;;41.40;47.80;;;;;;5053212;28;19908;-90
2022/04/26 15:45:13;;;;;;;;;;;40.80;48.30;;;;;;5071242;28;19909;-90
2022/04/26 15:47:39;;;;;;;;;;;41.00;47.30;;;;;;5070551;28;19915;-90
2022/04/26 15:50:05;;;;;;;;;;;41.50;48.30;;;;;;5070876;28;20288;-94
2022/04/26 15:52:31;;;;;;;;;;;42.50;47.30;;;;;;5070826;28;20395;-90
2022/04/26 15:54:56;;;;;;;;;;;42.80;46.90;;;;;;5070987;28;20002;-90
2022/04/26 15:57:22;;;;;;;;;;;43.40;47.10;;;;;;5071162;28;19947;-89
2022/04/26 15:59:47;;;;;;;;;;;42.20;46.60;;;;;;5070652;28;19909;-92
2022/04/26 16:02:13;;;;;;;;;;;42.30;46.90;;;;;;5070078;28;19916;-89
2022/04/26 16:04:38;;;;;;;;;;;41.90;46.60;;;;;;5070707;28;19909;-90
2022/04/26 16:07:04;;;;;;;;;;;41.10;46.50;;;;;;5070451;28;19909;-89
2022/04/26 16:20:29;;;;;;;;;;;43.00;46.10;;;;;;5070470;28;19915;-90
2022/04/26 16:22:56;;;;;;;;;;;42.20;45.20;;;;;;5070642;28;19916;-91
2022/04/26 16:25:22;;;;;;;;;;;42.00;46.10;;;;;;5070277;28;20430;-90
2022/04/26 16:27:49;;;;;;;;;;;41.60;45.00;;;;;;5065128;28;19909;-89
2022/04/26 16:30:14;;;;;;;;;;;41.30;45.70;;;;;;5070999;28;19921;-89
2022/04/26 16:32:40;;;;;;;;;;;41.60;45.30;;;;;;5070250;28;20671;-90
2022/04/26 16:35:07;;;;;;;;;;;42.10;45.40;;;;;;5070345;28;19916;-90
2022/04/26 16:37:33;;;;;;;;;;;41.90;44.60;;;;;;5052268;28;20288;-91
2022/04/26 16:39:58;;;;;;;;;;;41.20;45.10;;;;;;5052289;28;19915;-89
2022/04/26 16:42:24;;;;;;;;;;;41.30;45.00;;;;;;5070336;28;19916;-89
2022/04/26 16:44:50;;;;;;;;;;;41.30;45.20;;;;;;5052032;28;19972;-90
2022/04/26 16:47:15;;;;;;;;;;;41.10;45.10;;;;;;5070324;28;19916;-89
2022/04/26 16:49:41;;;;;;;;;;;40.40;44.70;;;;;;5051959;28;20399;-92
2022/04/26 16:52:06;;;;;;;;;;;40.30;45.00;;;;;;5070371;28;19908;-90
2022/04/26 16:54:32;;;;;;;;;;;39.90;45.60;;;;;;5052549;28;19963;-89
2022/04/26 16:56:58;;;;;;;;;;;39.90;44.90;;;;;;5070274;28;19951;-89
2022/04/26 16:59:24;;;;;;;;;;;39.60;45.10;;;;;;5071558;28;20353;-89
2022/04/26 17:01:50;;;;;;;;;;;40.10;45.10;;;;;;5070653;28;20086;-89
2022/04/26 17:04:17;;;;;;;;;;;39.70;44.90;;;;;;5070471;28;19908;-92
2022/04/26 17:06:42;;;;;;;;;;;39.30;44.90;;;;;;5070694;28;19952;-91
2022/04/26 17:09:08;;;;;;;;;;;38.60;44.70;;;;;;5070369;28;19944;-93
2022/04/26 17:11:43;;;;;;;;;;;39.10;44.90;;;;;;5052295;28;20428;-90
2022/04/26 17:14:09;;;;;;;;;;;38.70;45.20;;;;;;5054237;28;20390;-91
2022/04/26 17:16:35;;;;;;;;;;;38.30;44.80;;;;;;5056726;28;20282;-91
2022/04/26 17:19:01;;;;;;;;;;;38.30;46.00;;;;;;5055772;28;19927;-90
2022/04/26 17:21:26;;;;;;;;;;;37.90;44.90;;;;;;5074505;28;19931;-88
2022/04/26 17:23:52;;;;;;;;;;;38.10;45.70;;;;;;5059098;28;19980;-90
2022/04/26 17:26:17;;;;;;;;;;;37.50;45.30;;;;;;5078995;28;19920;-94
2022/04/26 17:28:43;;;;;;;;;;;36.30;45.10;;;;;;5074456;28;19909;-93
2022/04/26 17:31:10;;;;;;;;;;;36.00;45.90;;;;;;5074105;28;19952;-79
2022/04/26 17:33:39;;;;;;;;;;;35.40;46.00;;;;;;5081038;28;19936;-79
2022/04/26 17:36:06;;;;;;;;;;;34.20;46.90;;;;;;5080355;28;19995;-91
2022/04/26 17:38:32;;;;;;;;;;;32.30;47.90;;;;;;5076623;28;19920;-95
2022/04/26 17:40:58;;;;;;;;;;;29.90;49.40;;;;;;5077429;28;19909;-92
2022/04/26 17:43:24;;;;;;;;;;;28.20;51.40;;;;;;5061771;28;20284;-93
2022/04/26 17:45:49;;;;;;;;;;;27.20;53.40;;;;;;5081649;28;19917;-91
2022/04/26 17:48:15;;;;;;;;;;;26.00;53.60;;;;;;5075392;28;20266;-91
2022/04/26 17:50:43;;;;;;;;;;;25.00;55.40;;;;;;5065183;28;19990;-87
2022/04/26 17:58:38;;;;;;;;;;;23.00;59.20;;;;;;5073205;28;20126;-88
2022/04/26 18:01:03;;;;;;;;;;;22.60;60.00;;;;;;5055441;28;20044;-87
2022/04/26 18:03:30;;;;;;;;;;;22.20;60.40;;;;;;5054922;28;19908;-87
2022/04/26 18:05:56;;;;;;;;;;;21.80;62.30;;;;;;5054524;28;19909;-87
2022/04/26 18:08:23;;;;;;;;;;;21.40;63.20;;;;;;5073014;28;19919;-89
2022/04/26 18:10:49;;;;;;;;;;;21.10;64.80;;;;;;5054734;28;20115;-87
2022/04/26 18:13:15;;;;;;;;;;;20.90;65.00;;;;;;5072739;28;20119;-88
2022/04/26 18:15:41;;;;;;;;;;;20.70;66.30;;;;;;5054748;28;19909;-88
2022/04/26 18:18:07;;;;;;;;;;;20.60;68.70;;;;;;5072979;28;19977;-87
2022/04/26 18:20:32;;;;;;;;;;;20.30;67.80;;;;;;5072427;28;19912;-86
2022/04/26 18:22:58;;;;;;;;;;;20.10;69.70;;;;;;5072595;28;19914;-87
2022/04/26 18:28:08;;;;;;;;;;;19.80;71.10;;;;;;5072390;28;19915;-85
2022/04/26 18:30:34;;;;;;;;;;;19.70;71.20;;;;;;5054255;28;20328;-86
2022/04/26 18:32:59;;;;;;;;;;;19.60;72.70;;;;;;5072494;28;19909;-86
2022/04/26 18:35:26;;;;;;;;;;;19.50;73.10;;;;;;5072166;28;19973;-86
2022/04/26 18:37:51;;;;;;;;;;;19.50;73.90;;;;;;5072643;28;19923;-85
2022/04/26 18:40:17;;;;;;;;;;;19.40;74.20;;;;;;5072544;28;19909;-86
2022/04/26 18:42:42;;;;;;;;;;;19.30;74.70;;;;;;5072378;28;19916;-86
2022/04/26 18:45:08;;;;;;;;;;;19.10;75.50;;;;;;5053976;28;19909;-87
2022/04/26 18:47:33;;;;;;;;;;;19.10;75.30;;;;;;5071980;28;19909;-85
2022/04/26 18:49:59;;;;;;;;;;;19.00;75.30;;;;;;5053872;28;19912;-85
2022/04/26 18:52:24;;;;;;;;;;;18.90;76.10;;;;;;5072148;28;19916;-85
2022/04/26 18:54:50;;;;;;;;;;;18.80;76.20;;;;;;5071885;28;19924;-85